Time;durP1;ratioP1;P1;durP2;ratioP2;P2;SDS_P1;SDS_P2;PMS_P1;PMS_P2;Temp;Humidity;BMP_temperature;BMP_pressure;BME280_temperature;BME280_humidity;BME280_pressure;Samples;Min_cycle;Max_cycle;Signal;HPM_P1;HPM_P2
2023/10/27 00:00:45;;;;;;;2.47;2.15;;;;;;;8.75;100.00;150872.19;10490561;28;20076;-81
2023/10/27 00:06:19;;;;;;;3.95;2.88;;;;;;;8.82;100.00;150890.25;10502057;28;20066;-83
2023/10/27 00:11:21;;;;;;;2.97;2.75;;;;;;;9.11;100.00;150963.72;10535395;28;20067;-82
2023/10/27 00:16:23;;;;;;;3.30;2.50;;;;;;;9.06;100.00;150950.84;10541874;28;20062;-82
2023/10/27 00:21:25;;;;;;;4.13;3.03;;;;;;;8.90;100.00;150909.56;10523099;28;20045;-81
2023/10/27 00:26:26;;;;;;;2.35;1.90;;;;;;;8.91;100.00;150912.19;10546860;28;20048;-82
2023/10/27 00:31:28;;;;;;;2.53;2.25;;;;;;;8.91;100.00;150913.47;10521101;28;20055;-82
2023/10/27 00:36:32;;;;;;;2.92;2.63;;;;;;;8.97;100.00;150928.91;10554999;28;20041;-83
2023/10/27 00:41:33;;;;;;;3.35;2.70;;;;;;;8.97;100.00;150928.91;10537267;28;20041;-83
2023/10/27 00:46:36;;;;;;;2.40;2.20;;;;;;;9.03;100.00;150943.09;10506729;28;20090;-81
2023/10/27 00:51:38;;;;;;;2.63;2.30;;;;;;;9.13;100.00;150967.63;10503184;28;20052;-82
2023/10/27 00:56:41;;;;;;;2.47;2.25;;;;;;;9.19;100.00;150984.38;10518447;28;20036;-83
2023/10/27 01:01:43;;;;;;;4.03;2.60;;;;;;;9.09;100.00;150958.59;10481763;28;20420;-82
2023/10/27 01:06:45;;;;;;;5.47;2.17;;;;;;;9.13;100.00;150968.91;10498055;28;20151;-82
2023/10/27 01:11:48;;;;;;;3.38;2.25;;;;;;;9.20;100.00;150985.66;10514315;28;20040;-82
2023/10/27 01:16:50;;;;;;;2.80;2.60;;;;;;;9.14;100.00;150970.19;10495238;28;20143;-82
2023/10/27 01:21:51;;;;;;;3.30;2.28;;;;;;;9.24;100.00;150995.97;10515779;28;20048;-79
2023/10/27 01:26:53;;;;;;;2.03;1.80;;;;;;;9.27;100.00;151003.75;10496609;28;20060;-82
2023/10/27 01:31:55;;;;;;;2.40;2.20;;;;;;;9.28;100.00;151007.59;10495731;28;20453;-83
2023/10/27 01:36:57;;;;;;;2.53;2.30;;;;;;;9.26;100.00;151001.16;10494566;28;20049;-82
2023/10/27 01:41:59;;;;;;;2.65;2.30;;;;;;;9.32;100.00;151017.91;10517372;28;20512;-82
2023/10/27 01:47:01;;;;;;;3.15;2.58;;;;;;;9.23;100.00;150993.41;10502678;28;20089;-82
2023/10/27 01:52:03;;;;;;;3.28;2.97;;;;;;;9.18;100.00;150980.53;10512159;28;20115;-81
2023/10/27 01:57:04;;;;;;;3.65;2.35;;;;;;;9.34;100.00;151021.78;10492302;28;20045;-81
2023/10/27 02:02:06;;;;;;;3.40;2.25;;;;;;;9.76;100.00;151128.88;10492139;28;20040;-82
2023/10/27 02:07:08;;;;;;;2.63;2.05;;;;;;;9.41;100.00;151039.84;10492620;28;20048;-81
2023/10/27 02:12:10;;;;;;;4.00;2.60;;;;;;;9.27;100.00;151003.75;10510195;28;20040;-82
2023/10/27 02:17:12;;;;;;;2.55;1.83;;;;;;;9.25;100.00;150999.88;10492043;28;20478;-83
2023/10/27 02:22:14;;;;;;;2.45;2.25;;;;;;;9.25;100.00;150998.56;10491334;28;20060;-81
2023/10/27 02:27:16;;;;;;;3.22;2.25;;;;;;;9.21;100.00;150989.56;10490303;28;20048;-82
2023/10/27 02:32:18;;;;;;;2.95;2.40;;;;;;;9.21;100.00;150988.22;10510029;28;20123;-81
2023/10/27 02:37:20;;;;;;;2.55;2.10;;;;;;;9.30;100.00;151011.50;10491570;28;20040;-81
2023/10/27 02:42:22;;;;;;;2.83;2.22;;;;;;;9.34;100.00;151021.78;10492224;28;20571;-82
2023/10/27 02:47:24;;;;;;;2.95;2.42;;;;;;;9.43;100.00;151043.69;10492472;28;20078;-82
2023/10/27 02:52:26;;;;;;;2.25;2.05;;;;;;;9.44;100.00;151046.31;10489401;28;20139;-81
2023/10/27 02:57:28;;;;;;;2.03;1.80;;;;;;;9.38;100.00;151030.81;10490757;28;20048;-82
2023/10/27 03:02:29;;;;;;;2.10;1.90;;;;;;;9.38;100.00;151032.09;10509364;28;20049;-82
2023/10/27 03:07:32;;;;;;;2.03;1.85;;;;;;;9.46;100.00;151051.44;10510803;28;20385;-82
2023/10/27 03:12:33;;;;;;;3.33;2.67;;;;;;;9.35;100.00;151024.38;10492585;28;20045;-82
2023/10/27 03:17:35;;;;;;;2.65;2.30;;;;;;;9.33;100.00;151019.19;10492878;28;20566;-82
2023/10/27 03:22:37;;;;;;;2.15;1.95;;;;;;;9.41;100.00;151039.84;10491603;28;20079;-82
2023/10/27 03:27:39;;;;;;;2.33;2.13;;;;;;;9.43;100.00;151043.69;10492623;28;20480;-82
2023/10/27 03:32:41;;;;;;;3.00;2.60;;;;;;;9.60;100.00;151087.56;10518055;28;20036;-80
2023/10/27 03:37:42;;;;;;;2.28;2.08;;;;;;;9.56;100.00;151078.56;10510148;28;20040;-79
2023/10/27 03:42:44;;;;;;;2.20;2.00;;;;;;;9.52;100.00;151068.25;10526267;28;20041;-82
2023/10/27 03:47:46;;;;;;;2.40;2.03;;;;;;;9.51;100.00;151064.34;10476418;28;20131;-82
2023/10/27 03:52:47;;;;;;;3.08;2.10;;;;;;;9.49;100.00;151059.22;10508534;28;20040;-82
2023/10/27 03:57:52;;;;;;;2.20;1.80;;;;;;;9.49;100.00;151059.22;10489978;28;20512;-81
2023/10/27 04:02:54;;;;;;;2.38;2.00;;;;;;;9.47;100.00;151055.31;10496811;28;20064;-82
2023/10/27 04:07:56;;;;;;;2.70;2.30;;;;;;;9.50;100.00;151061.78;10481843;28;20436;-82
2023/10/27 04:12:58;;;;;;;2.13;1.90;;;;;;;9.48;100.00;151057.94;10499712;28;20044;-83
2023/10/27 04:18:00;;;;;;;2.35;2.05;;;;;;;9.58;100.00;151083.72;10519403;28;20068;-82
2023/10/27 04:23:02;;;;;;;4.78;1.80;;;;;;;9.57;100.00;151079.84;10520961;28;20045;-82
2023/10/27 04:28:06;;;;;;;2.88;1.90;;;;;;;9.56;100.00;151078.56;10514773;28;20563;-81
2023/10/27 04:33:09;;;;;;;2.10;1.55;;;;;;;9.45;100.00;151048.88;10514058;28;20052;-83
2023/10/27 04:38:12;;;;;;;1.63;1.30;;;;;;;9.49;100.00;151060.50;10524146;28;20092;-81
2023/10/27 04:43:15;;;;;;;2.75;1.77;;;;;;;9.49;100.00;151060.50;10554956;28;20037;-82
2023/10/27 04:48:17;;;;;;;4.60;1.80;;;;;;;9.68;100.00;151108.22;10522086;28;20048;-82
2023/10/27 04:53:19;;;;;;;2.47;1.80;;;;;;;9.73;100.00;151119.81;10555760;28;20626;-83
2023/10/27 04:58:24;;;;;;;2.95;1.80;;;;;;;9.58;100.00;151082.44;10555532;28;20070;-82
2023/10/27 05:03:27;;;;;;;1.70;1.60;;;;;;;9.57;100.00;151079.84;10509736;28;20049;-80
2023/10/27 05:08:29;;;;;;;1.95;1.75;;;;;;;9.59;100.00;151085.00;10519033;28;20040;-82
2023/10/27 05:13:31;;;;;;;2.65;2.45;;;;;;;9.77;100.00;151130.16;10501326;28;20036;-83
2023/10/27 05:18:33;;;;;;;3.25;2.95;;;;;;;9.58;100.00;151082.44;10501506;28;20055;-80
2023/10/27 05:23:35;;;;;;;9.55;8.65;;;;;;;9.66;100.00;151101.78;10499410;28;20041;-82
2023/10/27 05:28:37;;;;;;;8.23;7.43;;;;;;;9.59;100.00;151086.28;10516997;28;20044;-81
2023/10/27 05:33:38;;;;;;;5.18;2.90;;;;;;;9.57;100.00;151081.13;10538700;28;20060;-81
2023/10/27 05:38:40;;;;;;;3.58;2.90;;;;;;;9.62;100.00;151091.47;10513968;28;20040;-81
2023/10/27 05:43:42;;;;;;;3.35;2.60;;;;;;;9.60;100.00;151088.84;10515850;28;20043;-82
2023/10/27 05:48:44;;;;;;;2.97;2.67;;;;;;;9.55;100.00;151075.94;10479199;28;20040;-82
2023/10/27 05:53:46;;;;;;;2.47;2.28;;;;;;;9.58;100.00;151082.44;10498099;28;20041;-81
2023/10/27 05:58:48;;;;;;;3.63;3.25;;;;;;;9.83;100.00;151145.66;10497617;28;20052;-81
2023/10/27 06:03:50;;;;;;;3.55;2.92;;;;;;;9.65;100.00;151099.19;10491964;28;20039;-80
2023/10/27 06:08:52;;;;;;;3.78;3.00;;;;;;;9.62;100.00;151092.75;10510006;28;20075;-80
2023/10/27 06:13:53;;;;;;;3.65;3.20;;;;;;;9.63;100.00;151095.31;10490741;28;20439;-82
2023/10/27 06:18:55;;;;;;;4.18;3.78;;;;;;;9.70;100.00;151113.41;10508675;28;20051;-81
2023/10/27 06:23:57;;;;;;;3.45;3.15;;;;;;;9.78;100.00;151132.72;10507215;28;20037;-81
2023/10/27 06:28:59;;;;;;;3.17;2.70;;;;;;;9.59;100.00;151085.00;10490803;28;20045;-81
2023/10/27 06:34:01;;;;;;;5.80;3.35;;;;;;;9.66;100.00;151101.78;10490654;28;20044;-80
2023/10/27 06:39:03;;;;;;;3.10;2.88;;;;;;;9.49;100.00;151059.22;10490039;28;20127;-81
2023/10/27 06:44:06;;;;;;;4.15;3.10;;;;;;;9.65;100.00;151100.50;10491742;28;20064;-82
2023/10/27 06:49:07;;;;;;;3.55;3.25;;;;;;;9.67;100.00;151104.38;10473684;28;20131;-81
2023/10/27 06:54:10;;;;;;;3.63;3.33;;;;;;;9.52;100.00;151066.97;10508913;28;20043;-80
2023/10/27 06:59:11;;;;;;;5.07;3.63;;;;;;;9.52;100.00;151066.97;10489991;28;20074;-81
2023/10/27 07:04:13;;;;;;;3.50;3.20;;;;;;;9.58;100.00;151082.44;10489970;28;20047;-81
2023/10/27 07:09:15;;;;;;;3.92;3.53;;;;;;;9.44;100.00;151047.59;10510066;28;20040;-81
2023/10/27 07:14:17;;;;;;;4.82;4.43;;;;;;;9.42;100.00;151042.41;10474034;28;20068;-80
2023/10/27 07:19:19;;;;;;;5.55;5.05;;;;;;;9.46;100.00;151052.75;10486198;28;20048;-80
2023/10/27 07:24:22;;;;;;;4.70;4.30;;;;;;;9.56;100.00;151077.25;10487655;28;20052;-81
2023/10/27 07:29:24;;;;;;;7.57;5.50;;;;;;;9.77;100.00;151130.16;10505197;28;20123;-81
2023/10/27 07:34:26;;;;;;;5.65;5.15;;;;;;;9.72;100.00;151118.53;10515057;28;20415;-82
2023/10/27 07:39:28;;;;;;;5.80;5.18;;;;;;;9.58;100.00;151082.44;10489298;28;20044;-81
2023/10/27 07:44:30;;;;;;;6.53;5.30;;;;;;;9.55;100.00;151075.94;10491653;28;20139;-81
2023/10/27 07:49:32;;;;;;;5.63;5.10;;;;;;;9.62;100.00;151092.75;10507691;28;20495;-83
2023/10/27 07:54:34;;;;;;;5.50;5.00;;;;;;;9.67;100.00;151104.38;10508046;28;20124;-82
2023/10/27 07:59:36;;;;;;;8.02;6.07;;;;;;;9.77;100.00;151130.16;10507799;28;20140;-82
2023/10/27 08:04:38;;;;;;;5.38;4.88;;;;;;;9.85;100.00;151150.81;10508429;28;20511;-82
2023/10/27 08:09:40;;;;;;;7.75;6.95;;;;;;;9.87;100.00;151155.94;10488993;28;20097;-82
2023/10/27 08:14:42;;;;;;;6.82;6.13;;;;;;;10.00;100.00;151189.50;10488752;28;20108;-82
2023/10/27 08:19:44;;;;;;;7.32;6.63;;;;;;;10.19;100.00;151237.28;10487915;28;20044;-81
2023/10/27 08:24:45;;;;;;;8.27;6.88;;;;;;;10.16;100.00;151229.53;10506830;28;20511;-80
2023/10/27 08:29:47;;;;;;;6.72;6.13;;;;;;;10.55;100.00;151327.72;10505464;28;20485;-81
2023/10/27 08:34:49;;;;;;;7.43;6.72;;;;;;;10.52;100.00;151321.22;10486596;28;20040;-81
2023/10/27 08:39:51;;;;;;;7.00;6.35;;;;;;;10.57;100.00;151334.13;10487127;28;20053;-80
2023/10/27 08:44:54;;;;;;;7.18;6.47;;;;;;;10.49;100.00;151312.19;10487622;28;20411;-82
2023/10/27 08:49:56;;;;;;;6.68;6.07;;;;;;;10.54;100.00;151325.13;10519087;28;20086;-81
2023/10/27 08:55:06;;;;;;;6.95;6.35;;;;;;;10.50;100.00;151314.81;10523863;28;20146;-82
2023/10/27 09:00:09;;;;;;;7.53;6.85;;;;;;;10.54;100.00;151325.13;10514538;28;20068;-82
2023/10/27 09:05:11;;;;;;;7.10;6.20;;;;;;;10.60;100.00;151341.91;10513782;28;20041;-83
2023/10/27 09:10:13;;;;;;;7.80;7.10;;;;;;;10.57;100.00;151332.84;10495727;28;20036;-82
2023/10/27 09:15:15;;;;;;;8.75;8.05;;;;;;;10.89;100.00;151414.25;10495600;28;20140;-82
2023/10/27 09:20:20;;;;;;;10.25;9.40;;;;;;;10.93;100.00;151423.25;10495163;28;20048;-81
2023/10/27 09:25:21;;;;;;;9.27;8.48;;;;;;;11.01;100.00;151443.91;10500480;28;20047;-81
2023/10/27 09:30:32;;;;;;;10.77;9.68;;;;;;;10.98;100.00;151437.47;10494515;28;20040;-80
2023/10/27 09:35:33;;;;;;;9.38;8.57;;;;;;;10.97;100.00;151434.88;10500100;28;20051;-82
2023/10/27 09:40:37;;;;;;;9.65;8.85;;;;;;;10.92;100.00;151421.94;10541645;28;20051;-82
2023/10/27 09:45:43;;;;;;;9.90;9.10;;;;;;;11.06;100.00;151456.81;10527963;28;20101;-80
2023/10/27 09:50:48;;;;;;;9.10;8.40;;;;;;;10.99;100.00;151438.78;10512134;28;20048;-82
2023/10/27 09:55:50;;;;;;;10.65;9.75;;;;;;;11.01;100.00;151445.19;10497435;28;20479;-82
2023/10/27 10:00:53;;;;;;;9.60;8.60;;;;;;;10.86;100.00;151407.75;10513767;28;20080;-83
2023/10/27 10:06:23;;;;;;;9.35;8.55;;;;;;;10.95;100.00;151428.44;10509989;28;20044;-83
2023/10/27 10:11:36;;;;;;;8.90;8.05;;;;;;;11.05;100.00;151455.53;10510117;28;20041;-82
2023/10/27 10:16:45;;;;;;;8.93;8.23;;;;;;;11.18;100.00;151486.56;10508365;28;20044;-81
2023/10/27 10:21:47;;;;;;;9.63;8.82;;;;;;;11.13;100.00;151473.63;10491302;28;20074;-82
2023/10/27 10:27:15;;;;;;;10.77;9.77;;;;;;;11.04;100.00;151452.97;10509059;28;20115;-81
2023/10/27 10:32:33;;;;;;;10.13;9.13;;;;;;;11.07;100.00;151459.44;10510128;28;20126;-80
2023/10/27 10:37:36;;;;;;;10.45;9.65;;;;;;;11.19;100.00;151490.41;10501561;28;20041;-84
2023/10/27 10:43:16;;;;;;;11.23;10.20;;;;;;;11.52;100.00;151574.41;10505010;28;20048;-80
2023/10/27 10:48:18;;;;;;;10.27;9.38;;;;;;;11.36;100.00;151534.34;10487488;28;20094;-82
2023/10/27 10:53:22;;;;;;;11.25;10.25;;;;;;;11.51;100.00;151570.50;10486307;28;20044;-80
2023/10/27 10:58:25;;;;;;;11.23;10.23;;;;;;;11.74;100.00;151628.69;10509728;28;20051;-81
2023/10/27 11:03:28;;;;;;;3.30;3.00;;;;;;;11.78;100.00;151639.03;10491692;28;20060;-80
2023/10/27 11:08:34;;;;;;;1.45;1.02;;;;;;;11.72;100.00;151623.50;10511037;28;20041;-81
2023/10/27 11:13:51;;;;;;;1.42;0.80;;;;;;;11.78;100.00;151639.03;10487572;28;20419;-81
2023/10/27 11:18:59;;;;;;;1.45;1.33;;;;;;;11.45;100.00;151556.31;10505823;28;20046;-81
2023/10/27 11:24:08;;;;;;;2.15;1.02;;;;;;;11.61;100.00;151596.38;10488794;28;20051;-82
2023/10/27 11:29:09;;;;;;;1.30;0.80;;;;;;;11.43;100.00;151551.16;10507154;28;20049;-82
2023/10/27 11:34:20;;;;;;;2.22;0.60;;;;;;;11.47;100.00;151561.50;10489767;28;20071;-81
2023/10/27 11:39:23;;;;;;;1.88;1.50;;;;;;;11.09;100.00;151465.88;10471828;28;20055;-81
2023/10/27 11:44:25;;;;;;;0.40;0.40;;;;;;;11.06;100.00;151456.81;10487139;28;20036;-80
2023/10/27 11:49:28;;;;;;;0.60;0.40;;;;;;;11.04;100.00;151451.69;10509829;28;20074;-81
2023/10/27 11:54:30;;;;;;;0.30;0.30;;;;;;;11.11;100.00;151469.72;10510583;28;20052;-83
2023/10/27 11:59:32;;;;;;;1.15;0.50;;;;;;;11.11;100.00;151469.72;10494805;28;20049;-81
2023/10/27 12:04:34;;;;;;;0.30;0.30;;;;;;;11.19;100.00;151490.41;10511922;28;20092;-82
2023/10/27 12:09:36;;;;;;;4.88;3.40;;;;;;;11.18;100.00;151487.84;10513964;28;20029;-80
2023/10/27 12:14:38;;;;;;;2.58;0.88;;;;;;;11.09;100.00;151465.88;10508876;28;20064;-82
2023/10/27 12:19:39;;;;;;;0.70;0.70;;;;;;;11.25;100.00;151504.66;10493363;28;20119;-81
2023/10/27 12:24:41;;;;;;;1.10;0.40;;;;;;;11.21;100.00;151494.31;10530959;28;20067;-80
2023/10/27 12:29:43;;;;;;;0.50;0.50;;;;;;;11.07;100.00;151460.72;10542318;28;20028;-80
2023/10/27 12:34:45;;;;;;;0.50;0.45;;;;;;;11.04;100.00;151452.97;10526365;28;20044;-80
2023/10/27 12:39:48;;;;;;;0.70;0.70;;;;;;;11.29;100.00;151515.00;10530986;28;20060;-79
2023/10/27 12:44:50;;;;;;;0.73;0.73;;;;;;;11.32;100.00;151524.00;10533509;28;20052;-80
2023/10/27 12:49:52;;;;;;;0.70;0.70;;;;;;;11.15;100.00;151478.78;10528210;28;20054;-80
2023/10/27 12:54:54;;;;;;;0.75;0.75;;;;;;;11.40;100.00;151543.38;10517430;28;20512;-81
2023/10/27 12:59:55;;;;;;;1.20;0.82;;;;;;;11.44;100.00;151552.44;10519863;28;20044;-82
2023/10/27 13:05:00;;;;;;;1.08;0.93;;;;;;;11.18;100.00;151486.56;10505056;28;20075;-84
2023/10/27 13:10:02;;;;;;;0.88;0.88;;;;;;;11.28;100.00;151512.38;10502748;28;20080;-81
2023/10/27 13:15:07;;;;;;;1.05;0.95;;;;;;;11.14;100.00;151477.50;10525223;28;20043;-83
2023/10/27 13:20:12;;;;;;;0.93;0.90;;;;;;;11.11;100.00;151471.06;10501035;28;20056;-82
2023/10/27 13:25:14;;;;;;;1.23;1.13;;;;;;;10.84;100.00;151401.28;10519516;28;20043;-81
2023/10/27 13:30:17;;;;;;;1.30;1.20;;;;;;;10.85;100.00;151405.19;10521754;28;20068;-81
2023/10/27 13:35:20;;;;;;;1.30;1.20;;;;;;;10.88;100.00;151411.63;10520798;28;20040;-82
2023/10/27 13:40:22;;;;;;;0.95;0.95;;;;;;;10.61;100.00;151344.47;10518694;28;20443;-81
2023/10/27 13:45:24;;;;;;;1.75;1.65;;;;;;;10.63;100.00;151348.38;10514807;28;20059;-83
2023/10/27 13:50:26;;;;;;;1.50;1.40;;;;;;;10.58;100.00;151336.75;10521030;28;20060;-84
2023/10/27 13:55:27;;;;;;;1.77;1.67;;;;;;;10.58;100.00;151336.75;10485185;28;20488;-81
2023/10/27 14:00:29;;;;;;;2.70;2.40;;;;;;;10.78;100.00;151387.09;10518952;28;20123;-82
2023/10/27 14:05:31;;;;;;;2.35;2.15;;;;;;;10.64;100.00;151349.66;10500585;28;20041;-82
2023/10/27 14:10:33;;;;;;;2.80;2.60;;;;;;;10.58;100.00;151336.75;10510319;28;20059;-83
2023/10/27 14:15:35;;;;;;;3.20;2.38;;;;;;;10.61;100.00;151343.19;10517528;28;20523;-83
2023/10/27 14:20:37;;;;;;;3.03;2.83;;;;;;;10.56;100.00;151331.56;10505804;28;20057;-83
2023/10/27 14:25:40;;;;;;;4.80;4.47;;;;;;;10.46;100.00;151304.47;10483945;28;20127;-82
2023/10/27 14:30:42;;;;;;;4.38;3.97;;;;;;;10.39;100.00;151286.38;10477438;28;20500;-82
2023/10/27 14:35:44;;;;;;;5.10;4.70;;;;;;;10.50;100.00;151316.09;10493419;28;20052;-83
2023/10/27 14:40:50;;;;;;;5.38;4.97;;;;;;;10.40;100.00;151290.22;10511243;28;20123;-83
2023/10/27 14:45:59;;;;;;;4.88;4.47;;;;;;;10.42;100.00;151295.44;10493842;28;20044;-83
2023/10/27 14:51:03;;;;;;;5.53;5.13;;;;;;;10.29;100.00;151263.16;10511601;28;20381;-83
2023/10/27 14:56:07;;;;;;;6.75;6.25;;;;;;;10.35;100.00;151277.34;10510502;28;20064;-83
2023/10/27 15:01:10;;;;;;;6.90;6.40;;;;;;;10.26;100.00;151255.38;10493425;28;20486;-83
2023/10/27 15:06:12;;;;;;;5.28;4.88;;;;;;;10.36;100.00;151279.94;10491069;28;20098;-83
2023/10/27 15:11:14;;;;;;;6.72;6.15;;;;;;;10.41;100.00;151291.56;10493341;28;20139;-84
2023/10/27 15:16:32;;;;;;;6.25;5.80;;;;;;;10.32;100.00;151270.91;10479375;28;20048;-84
2023/10/27 15:21:34;;;;;;;6.85;6.32;;;;;;;10.18;100.00;151233.41;10517515;28;20045;-84
2023/10/27 15:26:36;;;;;;;5.82;5.30;;;;;;;10.07;100.00;151207.59;10482286;28;20416;-82
2023/10/27 15:31:39;;;;;;;7.63;7.03;;;;;;;9.84;100.00;151149.53;10493074;28;20052;-85
2023/10/27 15:36:40;;;;;;;8.00;7.40;;;;;;;9.93;100.00;151171.47;10499767;28;20044;-84
2023/10/27 15:41:42;;;;;;;9.07;8.38;;;;;;;9.91;100.00;151165.00;10504815;28;20098;-84
2023/10/27 15:46:45;;;;;;;9.02;8.23;;;;;;;9.86;100.00;151153.38;10490021;28;20041;-84
2023/10/27 15:51:48;;;;;;;8.32;7.63;;;;;;;9.85;100.00;151152.09;10496408;28;20105;-84
2023/10/27 15:56:50;;;;;;;8.20;7.50;;;;;;;9.77;100.00;151130.16;10497183;28;20037;-82
2023/10/27 16:01:52;;;;;;;10.93;10.02;;;;;;;9.71;100.00;151114.69;10497076;28;20045;-82
2023/10/27 16:06:57;;;;;;;11.32;10.32;;;;;;;9.67;100.00;151105.66;10512543;28;20036;-84
2023/10/27 16:12:00;;;;;;;11.48;10.48;;;;;;;9.84;100.00;151149.53;10489065;28;20045;-84
2023/10/27 16:17:02;;;;;;;12.65;11.55;;;;;;;9.77;100.00;151130.16;10507000;28;20484;-83
2023/10/27 16:22:04;;;;;;;12.35;11.25;;;;;;;9.75;100.00;151125.00;10507966;28;20115;-84
2023/10/27 16:27:07;;;;;;;14.52;13.25;;;;;;;9.83;100.00;151146.94;10471538;28;20053;-84
2023/10/27 16:32:09;;;;;;;13.85;12.48;;;;;;;9.74;100.00;151123.72;10487598;28;20049;-81
2023/10/27 16:37:13;;;;;;;15.43;14.02;;;;;;;9.94;100.00;151174.03;10505360;28;20068;-83
2023/10/27 16:42:15;;;;;;;15.15;13.75;;;;;;;9.74;100.00;151122.41;10470008;28;20102;-82
2023/10/27 16:47:17;;;;;;;16.10;14.45;;;;;;;9.71;100.00;151115.97;10506056;28;20060;-82
2023/10/27 16:52:18;;;;;;;15.95;14.32;;;;;;;9.71;100.00;151115.97;10511559;28;20104;-83
2023/10/27 16:57:20;;;;;;;16.58;14.98;;;;;;;9.64;100.00;151096.59;10513302;28;20508;-82
2023/10/27 17:02:24;;;;;;;15.98;14.52;;;;;;;9.56;100.00;151078.56;10488766;28;20045;-83
2023/10/27 17:07:26;;;;;;;15.43;13.65;;;;;;;9.50;100.00;151063.06;10507507;28;20090;-82
2023/10/27 17:12:28;;;;;;;19.45;14.55;;;;;;;9.66;100.00;151101.78;10508074;28;20082;-81
2023/10/27 17:17:30;;;;;;;15.57;13.98;;;;;;;9.56;100.00;151078.56;10513878;28;20037;-83
2023/10/27 17:22:32;;;;;;;16.20;14.73;;;;;;;9.56;100.00;151077.25;10507593;28;20048;-83
2023/10/27 17:27:34;;;;;;;19.48;16.65;;;;;;;9.54;100.00;151073.38;10508782;28;20051;-84
2023/10/27 17:32:38;;;;;;;17.00;15.32;;;;;;;9.57;100.00;151081.13;10510492;28;20045;-84
2023/10/27 17:37:40;;;;;;;17.35;15.63;;;;;;;9.58;100.00;151082.44;10508122;28;20569;-83
2023/10/27 17:42:42;;;;;;;17.85;16.13;;;;;;;9.54;100.00;151072.09;10512901;28;20036;-86
2023/10/27 17:47:48;;;;;;;16.38;14.85;;;;;;;9.53;100.00;151069.53;10513623;28;20496;-83
2023/10/27 17:52:50;;;;;;;15.43;14.02;;;;;;;9.60;100.00;151088.84;10498506;28;20048;-83
2023/10/27 17:57:52;;;;;;;15.85;14.23;;;;;;;9.65;100.00;151100.50;10517204;28;20037;-83
2023/10/27 18:02:54;;;;;;;15.90;14.30;;;;;;;9.71;100.00;151114.69;10500541;28;20123;-84
2023/10/27 18:07:57;;;;;;;14.60;13.20;;;;;;;9.65;100.00;151099.19;10516001;28;20067;-82
2023/10/27 18:12:59;;;;;;;15.90;14.50;;;;;;;9.65;100.00;151100.50;10487874;22;20044;-71
2023/10/27 18:18:02;;;;;;;14.82;13.50;;;;;;;9.67;100.00;151104.38;10497730;28;20044;-72
2023/10/27 18:23:09;;;;;;;14.50;13.13;;;;;;;9.58;100.00;151082.44;10486215;28;20045;-73
2023/10/27 18:28:11;;;;;;;14.30;12.90;;;;;;;9.58;100.00;151082.44;10505076;28;20051;-72
2023/10/27 18:33:13;;;;;;;15.25;13.82;;;;;;;9.73;100.00;151121.13;10486591;28;20064;-71
2023/10/27 18:38:15;;;;;;;15.93;14.43;;;;;;;9.84;100.00;151149.53;10484852;28;20127;-71
2023/10/27 18:43:17;;;;;;;14.60;13.30;;;;;;;9.70;100.00;151112.13;10503897;28;20056;-72
2023/10/27 18:48:20;;;;;;;12.82;11.65;;;;;;;9.69;100.00;151109.50;10486989;28;20044;-72
2023/10/27 18:53:22;;;;;;;17.15;15.40;;;;;;;9.78;100.00;151132.72;10505813;28;20115;-72
2023/10/27 18:58:25;;;;;;;15.70;13.85;;;;;;;9.66;100.00;151103.09;10470366;28;20036;-72
2023/10/27 19:03:30;;;;;;;14.07;12.68;;;;;;;9.65;100.00;151099.19;10486703;28;20045;-73
2023/10/27 19:08:32;;;;;;;11.90;10.82;;;;;;;9.58;100.00;151082.44;10485522;28;20094;-72
2023/10/27 19:13:36;;;;;;;8.18;7.25;;;;;;;9.55;100.00;151075.94;10484222;28;20040;-72
2023/10/27 19:18:39;;;;;;;5.07;4.55;;;;;;;9.85;100.00;151152.09;10502475;28;20070;-73
2023/10/27 19:23:43;;;;;;;5.20;3.63;;;;;;;9.81;100.00;151141.78;10484543;28;20062;-72
2023/10/27 19:28:46;;;;;;;4.53;4.10;;;;;;;9.73;100.00;151119.81;10501423;28;20040;-73
2023/10/27 19:33:48;;;;;;;4.40;3.90;;;;;;;9.58;100.00;151083.72;10484138;28;20064;-73
2023/10/27 19:38:51;;;;;;;5.43;4.50;;;;;;;9.47;100.00;151055.31;10484695;28;20075;-74
2023/10/27 19:43:53;;;;;;;4.63;4.13;;;;;;;9.65;100.00;151099.19;10501778;28;20045;-73
2023/10/27 19:48:55;;;;;;;4.50;4.10;;;;;;;9.56;100.00;151078.56;10482559;28;20040;-73
2023/10/27 19:53:57;;;;;;;4.95;4.45;;;;;;;9.49;100.00;151060.50;10500942;28;20044;-72
2023/10/27 19:58:59;;;;;;;4.88;4.32;;;;;;;9.50;100.00;151063.06;10481912;28;20428;-73
2023/10/27 20:04:01;;;;;;;5.32;4.88;;;;;;;9.53;100.00;151069.53;10482927;28;20063;-72
2023/10/27 20:09:05;;;;;;;7.32;6.60;;;;;;;9.78;100.00;151134.06;10483197;28;20047;-73
2023/10/27 20:14:07;;;;;;;7.43;6.72;;;;;;;9.73;100.00;151119.81;10481760;28;20055;-73
2023/10/27 20:19:09;;;;;;;7.40;6.70;;;;;;;9.73;100.00;151121.13;10499104;28;20056;-72
2023/10/27 20:24:12;;;;;;;7.00;6.40;;;;;;;9.73;100.00;151119.81;10481521;28;20041;-72
2023/10/27 20:29:15;;;;;;;8.27;7.47;;;;;;;9.76;100.00;151127.59;10499341;28;20041;-73
2023/10/27 20:34:17;;;;;;;7.95;7.15;;;;;;;9.85;100.00;151152.09;10499112;28;20041;-73
2023/10/27 20:39:19;;;;;;;8.05;7.25;;;;;;;9.69;100.00;151110.78;10500307;28;20028;-72
2023/10/27 20:44:21;;;;;;;9.80;8.95;;;;;;;9.82;100.00;151143.06;10483263;28;20531;-72
2023/10/27 20:49:24;;;;;;;11.98;10.77;;;;;;;10.11;100.00;151216.63;10488032;28;20044;-72
2023/10/27 20:54:25;;;;;;;9.57;8.73;;;;;;;10.06;100.00;151203.75;10507045;28;20040;-73
2023/10/27 20:59:27;;;;;;;12.40;11.20;;;;;;;10.03;100.00;151195.97;10488259;28;20049;-72
2023/10/27 21:04:29;;;;;;;12.68;11.48;;;;;;;9.99;100.00;151186.94;10505571;28;20049;-73
2023/10/27 21:09:31;;;;;;;13.45;12.07;;;;;;;10.03;100.00;151195.97;10505537;28;20051;-72
2023/10/27 21:14:33;;;;;;;12.35;11.15;;;;;;;10.00;100.00;151188.22;10504534;28;20036;-72
2023/10/27 21:19:35;;;;;;;13.18;11.98;;;;;;;9.78;100.00;151134.06;10486805;28;20044;-72
2023/10/27 21:24:37;;;;;;;13.02;11.80;;;;;;;9.60;100.00;151087.56;10504277;28;20037;-72
2023/10/27 21:29:39;;;;;;;12.75;11.63;;;;;;;9.65;100.00;151099.19;10504892;28;20060;-72
2023/10/27 21:34:40;;;;;;;12.68;11.43;;;;;;;9.65;100.00;151099.19;10504631;28;20434;-72
2023/10/27 21:39:50;;;;;;;8.85;8.05;;;;;;;9.66;100.00;151101.78;10504185;28;20064;-73
2023/10/27 21:44:52;;;;;;;7.38;6.75;;;;;;;9.71;100.00;151115.97;10504630;28;20050;-72
2023/10/27 21:49:54;;;;;;;4.43;4.03;;;;;;;9.74;100.00;151122.41;10503681;28;20097;-72
2023/10/27 21:54:55;;;;;;;1.02;0.80;;;;;;;10.01;100.00;151192.13;10503345;28;20443;-72
2023/10/27 21:59:57;;;;;;;1.65;0.68;;;;;;;10.20;100.00;151238.56;10504071;28;20072;-72
2023/10/27 22:05:05;;;;;;;0.65;0.47;;;;;;;10.24;100.00;151248.91;10503396;28;20474;-72
2023/10/27 22:10:07;;;;;;;0.50;0.50;;;;;;;10.22;100.00;151243.72;10503106;28;20369;-72
2023/10/27 22:15:09;;;;;;;2.58;0.55;;;;;;;10.26;100.00;151255.38;10502357;28;20068;-72
2023/10/27 22:20:12;;;;;;;2.13;0.43;;;;;;;10.48;100.00;151310.91;10502170;28;20037;-72
2023/10/27 22:25:15;;;;;;;2.60;0.50;;;;;;;10.20;100.00;151239.88;10501892;28;20412;-72
2023/10/27 22:30:16;;;;;;;0.90;0.88;;;;;;;10.14;100.00;151223.06;10501914;28;20090;-72
2023/10/27 22:35:19;;;;;;;0.63;0.43;;;;;;;10.11;100.00;151217.91;10502087;28;20404;-72
2023/10/27 22:40:21;;;;;;;1.58;0.70;;;;;;;10.29;100.00;151261.84;10484187;28;20051;-72
2023/10/27 22:45:22;;;;;;;0.85;0.40;;;;;;;10.52;100.00;151321.22;10500680;28;20051;-72
2023/10/27 22:50:25;;;;;;;0.70;0.40;;;;;;;10.55;100.00;151327.72;10482925;28;20072;-72
2023/10/27 22:55:26;;;;;;;0.85;0.80;;;;;;;10.60;100.00;151341.91;10501532;28;20048;-72
2023/10/27 23:00:28;;;;;;;5.85;0.40;;;;;;;10.63;100.00;151348.38;10502674;28;20558;-74